Jefferson, NC

8:57 AM EDT on March 27, 2017 (GMT -0400)
Ashe County

Weather History for KGEV - October, 2014

Change the Weather History Date:

Thursday, October 23, 2014

  Actual Average Record
Temperature  
Mean Temperature 48 °F -  
Max Temperature 56 °F 62 °F 73 °F (1984)
Min Temperature 39 °F 34 °F 18 °F (1987)
Degree Days  
Heating Degree Days 18    
Moisture  
Dew Point 33 °F    
Average Humidity 62    
Maximum Humidity 75    
Minimum Humidity 41    
Precipitation  
Precipitation 0.00 in - - ()
Sea Level Pressure  
Sea Level Pressure 30.09 in    
Wind  
Wind Speed 6 mph (NW)    
Max Wind Speed 14 mph    
Max Gust Speed 26 mph    
Visibility 10 miles    
Events      
Averages and records for this station are not official NWS values.
T = Trace of Precipitation, MM = Missing Value Source: NWS Daily Summary

Daily Weather History Graph

Daily Weather History Graph

Search for Another Location

Airport or City:

Trip Planner

Search our weather history database for the weather conditions in past years. The results will help you decide how hot, cold, wet, or windy it might be!

Date:

Astronomy

Oct. 23, 2014 Rise Set
Actual Time 7:40 AM EDT 6:39 PM EDT
Civil Twilight 7:13 AM EDT 7:05 PM EDT
Nautical Twilight 6:43 AM EDT 7:35 PM EDT
Astronomical Twilight 6:13 AM EDT 8:05 PM EDT
Moon 7:19 AM EDT (10/23) 6:40 PM EDT (10/23)
Length of Visible Light 11h 51m
Length of Day
10h 59m
Waning Crescent, 0% of the Moon is Illuminated
Oct 23
Waning Crescent
Oct 23
New
Oct 30
First Quarter
Nov 6
Full
Nov 14
Last Quarter

Hourly Weather History & Observations

Time (EDT) Temp. Windchill Dew Point Humidity Pressure Visibility Wind Dir Wind Speed Gust Speed Precip Events Conditions
12:15 AM 41.5 °F 38.6 °F 33.1 °F 72% 30.11 in 10.0 mi NNW 4.6 mph - N/A   Scattered Clouds
12:35 AM 41.5 °F 36.4 °F 33.3 °F 72% 30.10 in 10.0 mi WNW 8.1 mph - N/A   Mostly Cloudy
12:55 AM 41.7 °F 39.8 °F 32.9 °F 71% 30.10 in 10.0 mi West 3.5 mph - N/A   Scattered Clouds
1:15 AM 41.4 °F 35.7 °F 33.1 °F 72% 30.10 in 10.0 mi NNW 9.2 mph - N/A   Clear
1:35 AM 41.4 °F 36.8 °F 33.1 °F 72% 30.10 in 10.0 mi NW 6.9 mph - N/A   Clear
1:55 AM 41.4 °F 38.4 °F 33.1 °F 72% 30.10 in 10.0 mi NW 4.6 mph 23.0 mph N/A   Clear
2:15 AM 41.0 °F 35.8 °F 33.1 °F 73% 30.09 in 10.0 mi WNW 8.1 mph - N/A   Scattered Clouds
2:35 AM 40.3 °F 38.2 °F 32.9 °F 75% 30.09 in 10.0 mi NNW 3.5 mph - N/A   Clear
2:55 AM 41.0 °F 39.0 °F 32.9 °F 73% 30.09 in 10.0 mi NNW 3.5 mph - N/A   Clear
3:15 AM 40.6 °F 36.7 °F 32.9 °F 74% 30.09 in 10.0 mi NW 5.8 mph - N/A   Clear
3:35 AM 41.0 °F 38.0 °F 32.9 °F 73% 30.08 in 10.0 mi WNW 4.6 mph - N/A   Clear
3:55 AM 41.0 °F 34.3 °F 32.7 °F 72% 30.07 in 10.0 mi WNW 11.5 mph 20.7 mph N/A   Clear
4:15 AM 41.2 °F 34.5 °F 32.4 °F 71% 30.07 in 10.0 mi WNW 11.5 mph - N/A   Clear
4:35 AM 40.1 °F - 32.4 °F 74% 30.08 in 10.0 mi Calm Calm - N/A   Clear
4:55 AM 40.5 °F 35.8 °F 32.5 °F 73% 30.08 in 10.0 mi West 6.9 mph - N/A   Clear
5:15 AM 40.1 °F 36.1 °F 32.4 °F 74% 30.09 in 10.0 mi WNW 5.8 mph - N/A   Scattered Clouds
5:35 AM 40.1 °F 33.6 °F 32.5 °F 74% 30.08 in 10.0 mi WNW 10.4 mph 17.3 mph N/A   Clear
5:55 AM 40.5 °F 33.2 °F 32.2 °F 72% 30.08 in 10.0 mi WNW 12.7 mph 26.5 mph N/A   Clear
6:15 AM 40.3 °F - 32.0 °F 72% 30.09 in 10.0 mi Calm Calm - N/A   Clear
6:35 AM 40.3 °F - 32.0 °F 72% 30.09 in 10.0 mi Calm Calm - N/A   Clear
6:55 AM 39.9 °F - 32.0 °F 73% 30.09 in 10.0 mi Calm Calm - N/A   Clear
7:15 AM 40.3 °F 33.4 °F 32.0 °F 72% 30.09 in 10.0 mi NW 11.5 mph 17.3 mph N/A   Clear
7:35 AM 40.3 °F 36.3 °F 32.0 °F 72% 30.09 in 10.0 mi NNW 5.8 mph - N/A   Clear
7:55 AM 40.3 °F 35.5 °F 32.0 °F 72% 30.10 in 10.0 mi NW 6.9 mph 18.4 mph N/A   Clear
8:15 AM 40.5 °F 36.5 °F 32.0 °F 72% 30.10 in 10.0 mi WNW 5.8 mph 19.6 mph N/A   Clear
8:35 AM 41.0 °F 38.0 °F 32.0 °F 70% 30.11 in 10.0 mi West 4.6 mph 16.1 mph N/A   Clear
8:55 AM 41.9 °F 40.0 °F 32.0 °F 68% 30.11 in 10.0 mi West 3.5 mph - N/A   Clear
9:15 AM 42.6 °F 40.9 °F 32.0 °F 66% 30.12 in 10.0 mi West 3.5 mph - N/A   Clear
9:35 AM 43.5 °F 39.4 °F 32.0 °F 64% 30.13 in 10.0 mi WNW 6.9 mph - N/A   Clear
9:55 AM 44.2 °F 38.0 °F 32.0 °F 62% 30.12 in 10.0 mi NNW 12.7 mph 19.6 mph N/A   Clear
10:15 AM 44.8 °F 38.7 °F 32.0 °F 61% 30.13 in 10.0 mi NW 12.7 mph 19.6 mph N/A   Clear
10:35 AM 45.5 °F 39.2 °F 32.2 °F 60% 30.13 in 10.0 mi NNW 13.8 mph 18.4 mph N/A   Clear
10:55 AM 46.0 °F 40.2 °F 32.2 °F 58% 30.13 in 10.0 mi NW 12.7 mph 16.1 mph N/A   Clear
11:15 AM 46.4 °F 41.5 °F 32.4 °F 58% 30.13 in 10.0 mi NW 10.4 mph 17.3 mph N/A   Clear
11:35 AM 47.5 °F - 32.9 °F 57% 30.13 in 10.0 mi NW 9.2 mph 20.7 mph N/A   Clear
11:55 AM 47.8 °F - 32.5 °F 55% 30.13 in 10.0 mi NW 11.5 mph 20.7 mph N/A   Clear
12:15 PM 49.1 °F - 32.9 °F 54% 30.13 in 10.0 mi NNW 9.2 mph - N/A   Clear
12:35 PM 49.8 °F - 33.1 °F 53% 30.11 in 10.0 mi NW 11.5 mph 16.1 mph N/A   Clear
12:55 PM 50.2 °F - 33.1 °F 52% 30.10 in 10.0 mi NNW 5.8 mph 17.3 mph N/A   Clear
1:15 PM 51.4 °F - 32.5 °F 49% 30.09 in 10.0 mi NNW 10.4 mph - N/A   Clear
1:35 PM 52.7 °F - 32.5 °F 46% 30.08 in 10.0 mi NW 11.5 mph 17.3 mph N/A   Clear
1:55 PM 54.1 °F - 32.2 °F 43% 30.08 in 10.0 mi North 8.1 mph - N/A   Clear
2:15 PM 55.4 °F - 32.2 °F 41% 30.06 in 10.0 mi NNW 5.8 mph 9.2 mph N/A   Clear
2:35 PM 55.2 °F - 32.0 °F 41% 30.06 in 10.0 mi NW 11.5 mph 17.3 mph N/A   Clear
2:55 PM 55.8 °F - 32.5 °F 41% 30.06 in 10.0 mi NW 8.1 mph - N/A   Clear
3:15 PM 56.1 °F - 33.4 °F 42% 30.06 in 10.0 mi NNW 6.9 mph - N/A   Clear
3:35 PM 55.8 °F - 33.3 °F 43% 30.06 in 10.0 mi NW 9.2 mph - N/A   Clear
3:55 PM 56.8 °F - 33.6 °F 42% 30.06 in 10.0 mi North 5.8 mph - N/A   Clear
4:15 PM 56.8 °F - 33.3 °F 41% 30.05 in 10.0 mi NW 8.1 mph - N/A   Clear
4:35 PM 56.5 °F - 33.3 °F 42% 30.06 in 10.0 mi NW 9.2 mph - N/A   Clear
4:55 PM 55.4 °F - 33.4 °F 43% 30.05 in 10.0 mi NW 9.2 mph - N/A   Clear
5:15 PM 54.7 °F - 34.0 °F 46% 30.06 in 10.0 mi NNW 9.2 mph - N/A   Clear
5:35 PM 54.5 °F - 34.0 °F 46% 30.06 in 10.0 mi NW 4.6 mph - N/A   Clear
5:55 PM 53.2 °F - 34.3 °F 49% 30.06 in 10.0 mi NNW 5.8 mph - N/A   Clear
6:15 PM 51.8 °F - 34.7 °F 52% 30.06 in 10.0 mi NW 4.6 mph - N/A   Clear
6:35 PM 49.6 °F - 35.6 °F 59% 30.07 in 10.0 mi NNW 6.9 mph - N/A   Clear
6:55 PM 48.9 °F - 35.6 °F 60% 30.08 in 10.0 mi NW 6.9 mph - N/A   Clear
7:15 PM 48.0 °F - 35.2 °F 61% 30.08 in 10.0 mi WNW 5.8 mph - N/A   Clear
7:35 PM 46.9 °F - 34.9 °F 63% 30.08 in 10.0 mi WNW 3.5 mph - N/A   Clear
7:55 PM 46.4 °F 43.5 °F 33.8 °F 62% 30.08 in 10.0 mi WNW 5.8 mph - N/A   Clear
8:15 PM 45.0 °F - 35.1 °F 68% 30.09 in 10.0 mi Calm Calm - N/A   Clear
8:35 PM 44.6 °F 42.2 °F 34.5 °F 68% 30.09 in 10.0 mi WSW 4.6 mph - N/A   Clear
8:55 PM 43.5 °F 41.9 °F 34.2 °F 70% 30.09 in 10.0 mi ESE 3.5 mph - N/A   Clear
9:15 PM 43.7 °F 39.7 °F 34.9 °F 71% 30.09 in 10.0 mi West 6.9 mph - N/A   Clear
9:35 PM 44.1 °F - 34.3 °F 69% 30.09 in 10.0 mi Calm Calm - N/A   Clear
9:55 PM 43.9 °F 42.3 °F 34.2 °F 69% 30.09 in 10.0 mi SSW 3.5 mph - N/A   Clear
10:15 PM 43.0 °F - 33.3 °F 69% 30.09 in 10.0 mi Calm Calm - N/A   Clear
10:35 PM 44.1 °F 40.8 °F 33.1 °F 65% 30.09 in 10.0 mi West 5.8 mph - N/A   Clear
10:55 PM 43.3 °F - 33.1 °F 67% 30.09 in 10.0 mi Calm Calm - N/A   Clear
11:15 PM 42.3 °F 40.5 °F 33.3 °F 70% 30.09 in 10.0 mi East 3.5 mph - N/A   Clear
11:35 PM 42.6 °F 40.9 °F 32.9 °F 68% 30.09 in 10.0 mi NE 3.5 mph - N/A   Clear
11:55 PM 41.7 °F - 32.9 °F 71% 30.09 in 10.0 mi Calm Calm - N/A   Clear